sensor_id;sensor_type;location;lat;lon;timestamp;temperature;humidity
38428;DHT22;24211;49.980;19.776;2023-03-23T00:01:13;12.40;99.90
38428;DHT22;24211;49.980;19.776;2023-03-23T00:03:50;12.30;99.90
38428;DHT22;24211;49.980;19.776;2023-03-23T00:06:18;12.30;99.90
38428;DHT22;24211;49.980;19.776;2023-03-23T00:08:48;12.20;99.90
38428;DHT22;24211;49.980;19.776;2023-03-23T00:11:24;12.20;99.90
38428;DHT22;24211;49.980;19.776;2023-03-23T00:13:56;12.20;99.90
38428;DHT22;24211;49.980;19.776;2023-03-23T00:16:29;12.10;99.90
38428;DHT22;24211;49.980;19.776;2023-03-23T00:19:01;12.10;99.90
38428;DHT22;24211;49.980;19.776;2023-03-23T00:21:37;12.00;99.90
38428;DHT22;24211;49.980;19.776;2023-03-23T00:24:13;12.00;99.90
38428;DHT22;24211;49.980;19.776;2023-03-23T00:26:48;12.00;99.90
38428;DHT22;24211;49.980;19.776;2023-03-23T00:29:20;11.90;99.90
38428;DHT22;24211;49.980;19.776;2023-03-23T00:31:51;11.90;99.90
38428;DHT22;24211;49.980;19.776;2023-03-23T00:34:20;11.90;99.90
38428;DHT22;24211;49.980;19.776;2023-03-23T00:36:51;11.80;99.90
38428;DHT22;24211;49.980;19.776;2023-03-23T00:39:24;11.80;99.90
38428;DHT22;24211;49.980;19.776;2023-03-23T00:41:53;11.70;99.90
38428;DHT22;24211;49.980;19.776;2023-03-23T00:44:28;11.70;99.90
38428;DHT22;24211;49.980;19.776;2023-03-23T00:46:56;11.70;99.90
38428;DHT22;24211;49.980;19.776;2023-03-23T00:49:25;11.60;99.90
38428;DHT22;24211;49.980;19.776;2023-03-23T00:51:53;11.60;99.90
38428;DHT22;24211;49.980;19.776;2023-03-23T00:54:24;11.50;99.90
38428;DHT22;24211;49.980;19.776;2023-03-23T00:56:51;11.50;99.90
38428;DHT22;24211;49.980;19.776;2023-03-23T00:59:19;11.50;99.90
38428;DHT22;24211;49.980;19.776;2023-03-23T01:01:46;11.40;99.90
38428;DHT22;24211;49.980;19.776;2023-03-23T01:04:14;11.40;99.90
38428;DHT22;24211;49.980;19.776;2023-03-23T01:06:43;11.40;99.90
38428;DHT22;24211;49.980;19.776;2023-03-23T01:09:13;11.30;99.90
38428;DHT22;24211;49.980;19.776;2023-03-23T01:11:41;11.30;99.90
38428;DHT22;24211;49.980;19.776;2023-03-23T01:14:10;11.30;99.90
38428;DHT22;24211;49.980;19.776;2023-03-23T01:16:38;11.20;99.90
38428;DHT22;24211;49.980;19.776;2023-03-23T01:19:04;11.20;99.90
38428;DHT22;24211;49.980;19.776;2023-03-23T01:21:31;11.20;99.90
38428;DHT22;24211;49.980;19.776;2023-03-23T01:23:59;11.10;99.90
38428;DHT22;24211;49.980;19.776;2023-03-23T01:26:27;11.10;99.90
38428;DHT22;24211;49.980;19.776;2023-03-23T01:28:55;11.00;99.90
38428;DHT22;24211;49.980;19.776;2023-03-23T01:31:24;11.00;99.90
38428;DHT22;24211;49.980;19.776;2023-03-23T01:33:53;10.90;99.90
38428;DHT22;24211;49.980;19.776;2023-03-23T01:36:24;10.90;99.90
38428;DHT22;24211;49.980;19.776;2023-03-23T01:39:04;10.90;99.90
38428;DHT22;24211;49.980;19.776;2023-03-23T01:41:33;10.90;99.90
38428;DHT22;24211;49.980;19.776;2023-03-23T01:44:06;10.80;99.90
38428;DHT22;24211;49.980;19.776;2023-03-23T01:46:57;10.70;99.90
38428;DHT22;24211;49.980;19.776;2023-03-23T01:49:28;10.70;99.90
38428;DHT22;24211;49.980;19.776;2023-03-23T01:52:01;10.70;99.90
38428;DHT22;24211;49.980;19.776;2023-03-23T01:54:32;10.70;99.90
38428;DHT22;24211;49.980;19.776;2023-03-23T01:57:06;10.70;99.90
38428;DHT22;24211;49.980;19.776;2023-03-23T01:59:37;10.60;99.90
38428;DHT22;24211;49.980;19.776;2023-03-23T02:02:21;10.60;99.90
38428;DHT22;24211;49.980;19.776;2023-03-23T02:04:51;10.50;99.90
38428;DHT22;24211;49.980;19.776;2023-03-23T02:07:22;10.50;99.90
38428;DHT22;24211;49.980;19.776;2023-03-23T02:09:51;10.50;99.90
38428;DHT22;24211;49.980;19.776;2023-03-23T02:12:18;10.50;99.90
38428;DHT22;24211;49.980;19.776;2023-03-23T02:14:48;10.50;99.90
38428;DHT22;24211;49.980;19.776;2023-03-23T02:17:49;10.40;99.90
38428;DHT22;24211;49.980;19.776;2023-03-23T02:23:38;10.40;99.90
38428;DHT22;24211;49.980;19.776;2023-03-23T02:26:47;10.30;99.90
38428;DHT22;24211;49.980;19.776;2023-03-23T02:32:16;10.30;99.90
38428;DHT22;24211;49.980;19.776;2023-03-23T02:34:56;10.20;99.90
38428;DHT22;24211;49.980;19.776;2023-03-23T02:37:42;10.20;99.90
38428;DHT22;24211;49.980;19.776;2023-03-23T02:40:21;10.10;99.90
38428;DHT22;24211;49.980;19.776;2023-03-23T02:42:54;10.10;99.90
38428;DHT22;24211;49.980;19.776;2023-03-23T02:45:24;10.10;99.90
38428;DHT22;24211;49.980;19.776;2023-03-23T02:47:55;10.10;99.90
38428;DHT22;24211;49.980;19.776;2023-03-23T02:50:24;10.00;99.90
38428;DHT22;24211;49.980;19.776;2023-03-23T02:52:55;10.10;99.90
38428;DHT22;24211;49.980;19.776;2023-03-23T02:55:25;10.00;99.90
38428;DHT22;24211;49.980;19.776;2023-03-23T02:57:55;10.00;99.90
38428;DHT22;24211;49.980;19.776;2023-03-23T03:00:22;10.00;99.90
38428;DHT22;24211;49.980;19.776;2023-03-23T03:02:53;10.00;99.90
38428;DHT22;24211;49.980;19.776;2023-03-23T03:05:44;9.90;99.90
38428;DHT22;24211;49.980;19.776;2023-03-23T03:11:21;9.90;99.90
38428;DHT22;24211;49.980;19.776;2023-03-23T03:13:58;9.90;99.90
38428;DHT22;24211;49.980;19.776;2023-03-23T03:19:37;9.80;99.90
38428;DHT22;24211;49.980;19.776;2023-03-23T03:22:07;9.80;99.90
38428;DHT22;24211;49.980;19.776;2023-03-23T03:24:40;9.80;99.90
38428;DHT22;24211;49.980;19.776;2023-03-23T03:27:16;9.80;99.90
38428;DHT22;24211;49.980;19.776;2023-03-23T03:30:04;9.70;99.90
38428;DHT22;24211;49.980;19.776;2023-03-23T03:32:46;9.70;99.90
38428;DHT22;24211;49.980;19.776;2023-03-23T03:35:17;9.70;99.90
38428;DHT22;24211;49.980;19.776;2023-03-23T03:37:44;9.70;99.90
38428;DHT22;24211;49.980;19.776;2023-03-23T03:40:14;9.70;99.90
38428;DHT22;24211;49.980;19.776;2023-03-23T03:42:44;9.70;99.90
38428;DHT22;24211;49.980;19.776;2023-03-23T03:45:18;9.60;99.90
38428;DHT22;24211;49.980;19.776;2023-03-23T03:47:46;9.60;99.90
38428;DHT22;24211;49.980;19.776;2023-03-23T03:50:13;9.60;99.90
38428;DHT22;24211;49.980;19.776;2023-03-23T03:52:39;9.60;99.90
38428;DHT22;24211;49.980;19.776;2023-03-23T03:55:08;9.60;99.90
38428;DHT22;24211;49.980;19.776;2023-03-23T03:57:39;9.60;99.90
38428;DHT22;24211;49.980;19.776;2023-03-23T04:00:34;9.50;99.90
38428;DHT22;24211;49.980;19.776;2023-03-23T04:03:01;9.50;99.90
38428;DHT22;24211;49.980;19.776;2023-03-23T04:05:42;9.50;99.90
38428;DHT22;24211;49.980;19.776;2023-03-23T04:08:11;9.50;99.90
38428;DHT22;24211;49.980;19.776;2023-03-23T04:10:38;9.50;99.90
38428;DHT22;24211;49.980;19.776;2023-03-23T04:13:05;9.40;99.90
38428;DHT22;24211;49.980;19.776;2023-03-23T04:15:52;9.40;99.90
38428;DHT22;24211;49.980;19.776;2023-03-23T04:18:19;9.30;99.90
38428;DHT22;24211;49.980;19.776;2023-03-23T04:20:49;9.30;99.90
38428;DHT22;24211;49.980;19.776;2023-03-23T04:23:20;9.30;99.90
38428;DHT22;24211;49.980;19.776;2023-03-23T04:25:50;9.30;99.90
38428;DHT22;24211;49.980;19.776;2023-03-23T04:28:19;9.30;99.90
38428;DHT22;24211;49.980;19.776;2023-03-23T04:31:08;9.30;99.90
38428;DHT22;24211;49.980;19.776;2023-03-23T04:33:35;9.30;99.90
38428;DHT22;24211;49.980;19.776;2023-03-23T04:36:03;9.20;99.90
38428;DHT22;24211;49.980;19.776;2023-03-23T04:38:38;9.20;99.90
38428;DHT22;24211;49.980;19.776;2023-03-23T04:41:21;9.30;99.90
38428;DHT22;24211;49.980;19.776;2023-03-23T04:44:07;9.20;99.90
38428;DHT22;24211;49.980;19.776;2023-03-23T04:46:40;9.20;99.90
38428;DHT22;24211;49.980;19.776;2023-03-23T04:49:10;9.20;99.90
38428;DHT22;24211;49.980;19.776;2023-03-23T04:51:39;9.10;99.90
38428;DHT22;24211;49.980;19.776;2023-03-23T04:54:20;9.10;99.90
38428;DHT22;24211;49.980;19.776;2023-03-23T04:56:51;9.10;99.90
38428;DHT22;24211;49.980;19.776;2023-03-23T04:59:18;9.10;99.90
38428;DHT22;24211;49.980;19.776;2023-03-23T05:02:01;9.00;99.90
38428;DHT22;24211;49.980;19.776;2023-03-23T05:04:29;9.00;99.90
38428;DHT22;24211;49.980;19.776;2023-03-23T05:07:04;9.00;99.90
38428;DHT22;24211;49.980;19.776;2023-03-23T05:09:36;9.00;99.90
38428;DHT22;24211;49.980;19.776;2023-03-23T05:12:07;9.00;99.90
38428;DHT22;24211;49.980;19.776;2023-03-23T05:14:43;9.10;99.90
38428;DHT22;24211;49.980;19.776;2023-03-23T05:17:14;9.10;99.90
38428;DHT22;24211;49.980;19.776;2023-03-23T05:19:44;9.10;99.90
38428;DHT22;24211;49.980;19.776;2023-03-23T05:22:32;9.10;99.90
38428;DHT22;24211;49.980;19.776;2023-03-23T05:25:00;9.10;99.90
38428;DHT22;24211;49.980;19.776;2023-03-23T05:27:35;9.10;99.90
38428;DHT22;24211;49.980;19.776;2023-03-23T05:30:13;9.10;99.90
38428;DHT22;24211;49.980;19.776;2023-03-23T05:32:43;9.10;99.90
38428;DHT22;24211;49.980;19.776;2023-03-23T05:35:33;9.10;99.90
38428;DHT22;24211;49.980;19.776;2023-03-23T05:38:01;9.10;99.90
38428;DHT22;24211;49.980;19.776;2023-03-23T05:40:30;9.20;99.90
38428;DHT22;24211;49.980;19.776;2023-03-23T05:43:03;9.20;99.90
38428;DHT22;24211;49.980;19.776;2023-03-23T05:45:42;9.20;99.90
38428;DHT22;24211;49.980;19.776;2023-03-23T05:48:09;9.30;99.90
38428;DHT22;24211;49.980;19.776;2023-03-23T05:50:36;9.30;99.90
38428;DHT22;24211;49.980;19.776;2023-03-23T05:53:03;9.40;99.90
38428;DHT22;24211;49.980;19.776;2023-03-23T05:55:33;9.50;99.90
38428;DHT22;24211;49.980;19.776;2023-03-23T05:58:09;9.60;99.90
38428;DHT22;24211;49.980;19.776;2023-03-23T06:00:38;9.70;99.90
38428;DHT22;24211;49.980;19.776;2023-03-23T06:03:19;9.70;99.90
38428;DHT22;24211;49.980;19.776;2023-03-23T06:06:05;9.80;99.90
38428;DHT22;24211;49.980;19.776;2023-03-23T06:08:43;9.90;99.90
38428;DHT22;24211;49.980;19.776;2023-03-23T06:11:10;10.00;99.90
38428;DHT22;24211;49.980;19.776;2023-03-23T06:13:44;10.00;99.90
38428;DHT22;24211;49.980;19.776;2023-03-23T06:16:11;10.00;99.90
38428;DHT22;24211;49.980;19.776;2023-03-23T06:18:52;10.10;99.90
38428;DHT22;24211;49.980;19.776;2023-03-23T06:21:27;10.20;99.90
38428;DHT22;24211;49.980;19.776;2023-03-23T06:24:11;10.40;99.90
38428;DHT22;24211;49.980;19.776;2023-03-23T06:26:39;10.50;99.90
38428;DHT22;24211;49.980;19.776;2023-03-23T06:29:12;10.60;99.90
38428;DHT22;24211;49.980;19.776;2023-03-23T06:31:46;10.80;99.90
38428;DHT22;24211;49.980;19.776;2023-03-23T06:34:17;10.90;99.90
38428;DHT22;24211;49.980;19.776;2023-03-23T06:37:02;11.00;99.90
38428;DHT22;24211;49.980;19.776;2023-03-23T06:39:39;11.20;99.90
38428;DHT22;24211;49.980;19.776;2023-03-23T06:42:32;11.40;99.90
38428;DHT22;24211;49.980;19.776;2023-03-23T06:45:22;11.60;99.90
38428;DHT22;24211;49.980;19.776;2023-03-23T06:47:55;12.00;99.90
38428;DHT22;24211;49.980;19.776;2023-03-23T06:50:22;12.30;99.90
38428;DHT22;24211;49.980;19.776;2023-03-23T06:52:50;12.40;99.90
38428;DHT22;24211;49.980;19.776;2023-03-23T06:55:18;12.60;99.90
38428;DHT22;24211;49.980;19.776;2023-03-23T06:57:46;12.70;99.90
38428;DHT22;24211;49.980;19.776;2023-03-23T07:00:13;12.80;99.90
38428;DHT22;24211;49.980;19.776;2023-03-23T07:02:43;13.00;99.90
38428;DHT22;24211;49.980;19.776;2023-03-23T07:05:12;13.10;99.90
38428;DHT22;24211;49.980;19.776;2023-03-23T07:07:40;13.30;99.90
38428;DHT22;24211;49.980;19.776;2023-03-23T07:10:25;13.40;99.90
38428;DHT22;24211;49.980;19.776;2023-03-23T07:12:52;13.60;99.90
38428;DHT22;24211;49.980;19.776;2023-03-23T07:15:19;13.80;99.90
38428;DHT22;24211;49.980;19.776;2023-03-23T07:17:49;13.90;99.90
38428;DHT22;24211;49.980;19.776;2023-03-23T07:20:42;14.00;99.90
38428;DHT22;24211;49.980;19.776;2023-03-23T07:23:09;14.10;99.90
38428;DHT22;24211;49.980;19.776;2023-03-23T07:25:41;14.30;99.90
38428;DHT22;24211;49.980;19.776;2023-03-23T07:28:11;14.50;99.90
38428;DHT22;24211;49.980;19.776;2023-03-23T07:30:38;14.60;99.90
38428;DHT22;24211;49.980;19.776;2023-03-23T07:33:06;14.70;99.90
38428;DHT22;24211;49.980;19.776;2023-03-23T07:35:35;14.90;99.90
38428;DHT22;24211;49.980;19.776;2023-03-23T07:38:13;15.00;99.90
38428;DHT22;24211;49.980;19.776;2023-03-23T07:40:45;15.10;99.90
38428;DHT22;24211;49.980;19.776;2023-03-23T07:43:15;15.20;99.90
38428;DHT22;24211;49.980;19.776;2023-03-23T07:46:07;15.20;99.90
38428;DHT22;24211;49.980;19.776;2023-03-23T07:48:45;15.30;99.90
38428;DHT22;24211;49.980;19.776;2023-03-23T07:51:13;15.40;99.90
38428;DHT22;24211;49.980;19.776;2023-03-23T07:53:40;15.50;99.90
38428;DHT22;24211;49.980;19.776;2023-03-23T07:56:21;15.60;99.90
38428;DHT22;24211;49.980;19.776;2023-03-23T07:58:54;15.70;99.90
38428;DHT22;24211;49.980;19.776;2023-03-23T08:01:21;15.90;99.90
38428;DHT22;24211;49.980;19.776;2023-03-23T08:04:07;16.00;99.90
38428;DHT22;24211;49.980;19.776;2023-03-23T08:07:06;16.10;99.90
38428;DHT22;24211;49.980;19.776;2023-03-23T08:09:42;16.20;99.90
38428;DHT22;24211;49.980;19.776;2023-03-23T08:12:24;16.20;99.90
38428;DHT22;24211;49.980;19.776;2023-03-23T08:15:14;16.30;99.90
38428;DHT22;24211;49.980;19.776;2023-03-23T08:17:52;16.30;99.90
38428;DHT22;24211;49.980;19.776;2023-03-23T08:20:38;16.30;99.90
38428;DHT22;24211;49.980;19.776;2023-03-23T08:23:13;16.40;99.90
38428;DHT22;24211;49.980;19.776;2023-03-23T08:25:44;16.40;99.90
38428;DHT22;24211;49.980;19.776;2023-03-23T08:28:27;16.40;99.90
38428;DHT22;24211;49.980;19.776;2023-03-23T08:31:22;16.40;99.90
38428;DHT22;24211;49.980;19.776;2023-03-23T08:34:12;16.50;99.90
38428;DHT22;24211;49.980;19.776;2023-03-23T08:36:57;16.50;99.90
38428;DHT22;24211;49.980;19.776;2023-03-23T08:39:39;16.60;99.90
38428;DHT22;24211;49.980;19.776;2023-03-23T08:42:27;16.60;99.90
38428;DHT22;24211;49.980;19.776;2023-03-23T08:45:24;16.70;99.90
38428;DHT22;24211;49.980;19.776;2023-03-23T08:48:05;16.70;99.90
38428;DHT22;24211;49.980;19.776;2023-03-23T08:50:36;16.70;99.90
38428;DHT22;24211;49.980;19.776;2023-03-23T08:53:35;16.80;99.90
38428;DHT22;24211;49.980;19.776;2023-03-23T08:56:23;17.00;99.90
38428;DHT22;24211;49.980;19.776;2023-03-23T08:59:08;17.10;99.90
38428;DHT22;24211;49.980;19.776;2023-03-23T09:02:04;17.10;99.90
38428;DHT22;24211;49.980;19.776;2023-03-23T09:04:43;17.10;99.90
38428;DHT22;24211;49.980;19.776;2023-03-23T09:07:20;17.20;99.90
38428;DHT22;24211;49.980;19.776;2023-03-23T09:09:47;17.30;99.90
38428;DHT22;24211;49.980;19.776;2023-03-23T09:12:14;17.40;99.90
38428;DHT22;24211;49.980;19.776;2023-03-23T09:14:40;17.50;99.90
38428;DHT22;24211;49.980;19.776;2023-03-23T09:17:07;17.50;99.90
38428;DHT22;24211;49.980;19.776;2023-03-23T09:19:34;17.50;99.90
38428;DHT22;24211;49.980;19.776;2023-03-23T09:22:01;17.60;99.90
38428;DHT22;24211;49.980;19.776;2023-03-23T09:24:30;17.70;99.90
38428;DHT22;24211;49.980;19.776;2023-03-23T09:26:57;17.70;99.90
38428;DHT22;24211;49.980;19.776;2023-03-23T09:29:25;17.80;99.90
38428;DHT22;24211;49.980;19.776;2023-03-23T09:31:53;17.90;99.90
38428;DHT22;24211;49.980;19.776;2023-03-23T09:34:20;18.00;99.90
38428;DHT22;24211;49.980;19.776;2023-03-23T09:36:48;18.10;99.90
38428;DHT22;24211;49.980;19.776;2023-03-23T09:39:15;18.20;99.90
38428;DHT22;24211;49.980;19.776;2023-03-23T09:47:20;18.70;99.90
38428;DHT22;24211;49.980;19.776;2023-03-23T09:50:18;18.90;99.90
38428;DHT22;24211;49.980;19.776;2023-03-23T09:52:52;19.10;99.90
38428;DHT22;24211;49.980;19.776;2023-03-23T09:55:22;19.30;99.90
38428;DHT22;24211;49.980;19.776;2023-03-23T10:00:43;19.90;99.90
38428;DHT22;24211;49.980;19.776;2023-03-23T10:03:23;20.10;99.90
38428;DHT22;24211;49.980;19.776;2023-03-23T10:05:54;20.30;99.90
38428;DHT22;24211;49.980;19.776;2023-03-23T10:08:26;20.30;99.90
38428;DHT22;24211;49.980;19.776;2023-03-23T10:29:08;21.30;99.90
38428;DHT22;24211;49.980;19.776;2023-03-23T10:34:46;22.10;96.80
38428;DHT22;24211;49.980;19.776;2023-03-23T10:37:23;22.20;95.00
38428;DHT22;24211;49.980;19.776;2023-03-23T10:39:55;22.20;93.90
38428;DHT22;24211;49.980;19.776;2023-03-23T10:42:28;22.20;93.30
38428;DHT22;24211;49.980;19.776;2023-03-23T10:45:09;22.10;92.60
38428;DHT22;24211;49.980;19.776;2023-03-23T10:47:49;22.00;92.40
38428;DHT22;24211;49.980;19.776;2023-03-23T10:50:34;21.80;92.30
38428;DHT22;24211;49.980;19.776;2023-03-23T10:53:14;21.70;91.90
38428;DHT22;24211;49.980;19.776;2023-03-23T10:55:43;21.70;91.60
38428;DHT22;24211;49.980;19.776;2023-03-23T10:58:22;21.80;91.60
38428;DHT22;24211;49.980;19.776;2023-03-23T11:00:51;22.00;91.90
38428;DHT22;24211;49.980;19.776;2023-03-23T11:03:23;22.10;91.00
38428;DHT22;24211;49.980;19.776;2023-03-23T11:06:10;22.40;91.00
38428;DHT22;24211;49.980;19.776;2023-03-23T11:08:52;22.50;90.50
38428;DHT22;24211;49.980;19.776;2023-03-23T11:11:30;22.60;90.30
38428;DHT22;24211;49.980;19.776;2023-03-23T11:14:02;22.90;90.60
38428;DHT22;24211;49.980;19.776;2023-03-23T11:16:46;23.00;90.40
38428;DHT22;24211;49.980;19.776;2023-03-23T11:19:26;23.30;90.10
38428;DHT22;24211;49.980;19.776;2023-03-23T11:22:13;23.60;88.90
38428;DHT22;24211;49.980;19.776;2023-03-23T11:25:00;23.70;87.30
38428;DHT22;24211;49.980;19.776;2023-03-23T11:27:29;23.90;86.90
38428;DHT22;24211;49.980;19.776;2023-03-23T11:30:01;24.00;85.60
38428;DHT22;24211;49.980;19.776;2023-03-23T11:32:35;24.00;84.50
38428;DHT22;24211;49.980;19.776;2023-03-23T11:35:06;24.30;84.20
38428;DHT22;24211;49.980;19.776;2023-03-23T11:37:58;24.30;83.10
38428;DHT22;24211;49.980;19.776;2023-03-23T11:40:27;24.30;82.30
38428;DHT22;24211;49.980;19.776;2023-03-23T11:43:00;24.50;82.50
38428;DHT22;24211;49.980;19.776;2023-03-23T11:45:39;24.60;81.90
38428;DHT22;24211;49.980;19.776;2023-03-23T11:48:43;24.60;81.10
38428;DHT22;24211;49.980;19.776;2023-03-23T11:56:38;24.00;81.30
38428;DHT22;24211;49.980;19.776;2023-03-23T11:59:13;23.80;81.50
38428;DHT22;24211;49.980;19.776;2023-03-23T12:23:08;22.30;84.60
38428;DHT22;24211;49.980;19.776;2023-03-23T12:26:07;22.20;85.20
38428;DHT22;24211;49.980;19.776;2023-03-23T12:32:04;22.10;86.40
38428;DHT22;24211;49.980;19.776;2023-03-23T12:34:41;22.00;86.20
38428;DHT22;24211;49.980;19.776;2023-03-23T12:40:28;21.90;86.40
38428;DHT22;24211;49.980;19.776;2023-03-23T12:43:38;21.80;86.00
38428;DHT22;24211;49.980;19.776;2023-03-23T12:46:24;21.80;86.80
38428;DHT22;24211;49.980;19.776;2023-03-23T12:49:54;21.80;87.30
38428;DHT22;24211;49.980;19.776;2023-03-23T12:52:17;21.70;87.80
38428;DHT22;24211;49.980;19.776;2023-03-23T12:55:01;21.60;87.40
38428;DHT22;24211;49.980;19.776;2023-03-23T12:58:05;21.50;87.70
38428;DHT22;24211;49.980;19.776;2023-03-23T13:00:54;21.50;88.60
38428;DHT22;24211;49.980;19.776;2023-03-23T13:04:27;21.30;88.50
38428;DHT22;24211;49.980;19.776;2023-03-23T13:06:42;21.20;89.00
38428;DHT22;24211;49.980;19.776;2023-03-23T13:12:23;21.00;90.00
38428;DHT22;24211;49.980;19.776;2023-03-23T13:15:06;20.90;90.20
38428;DHT22;24211;49.980;19.776;2023-03-23T13:18:24;20.80;90.40
38428;DHT22;24211;49.980;19.776;2023-03-23T13:23:45;20.70;90.80
38428;DHT22;24211;49.980;19.776;2023-03-23T13:26:20;20.60;90.90
38428;DHT22;24211;49.980;19.776;2023-03-23T13:28:59;20.50;91.10
38428;DHT22;24211;49.980;19.776;2023-03-23T13:31:35;20.50;91.40
38428;DHT22;24211;49.980;19.776;2023-03-23T13:34:30;20.40;91.70
38428;DHT22;24211;49.980;19.776;2023-03-23T13:37:11;20.40;91.90
38428;DHT22;24211;49.980;19.776;2023-03-23T13:39:54;20.30;92.10
38428;DHT22;24211;49.980;19.776;2023-03-23T13:42:54;20.30;92.30
38428;DHT22;24211;49.980;19.776;2023-03-23T13:48:18;20.10;92.50
38428;DHT22;24211;49.980;19.776;2023-03-23T13:50:52;20.10;92.60
38428;DHT22;24211;49.980;19.776;2023-03-23T13:53:31;20.00;92.70
38428;DHT22;24211;49.980;19.776;2023-03-23T13:56:42;19.90;92.90
38428;DHT22;24211;49.980;19.776;2023-03-23T13:59:32;19.90;93.10
38428;DHT22;24211;49.980;19.776;2023-03-23T14:02:28;19.80;93.20
38428;DHT22;24211;49.980;19.776;2023-03-23T14:04:56;19.80;93.20
38428;DHT22;24211;49.980;19.776;2023-03-23T14:07:23;19.70;93.40
38428;DHT22;24211;49.980;19.776;2023-03-23T14:09:50;19.70;93.20
38428;DHT22;24211;49.980;19.776;2023-03-23T14:12:27;19.70;93.40
38428;DHT22;24211;49.980;19.776;2023-03-23T14:15:01;19.70;93.60
38428;DHT22;24211;49.980;19.776;2023-03-23T14:17:42;19.70;93.80
38428;DHT22;24211;49.980;19.776;2023-03-23T14:20:32;19.70;93.90
38428;DHT22;24211;49.980;19.776;2023-03-23T14:23:04;19.70;93.80
38428;DHT22;24211;49.980;19.776;2023-03-23T14:25:31;19.70;94.00
38428;DHT22;24211;49.980;19.776;2023-03-23T14:27:58;19.70;94.10
38428;DHT22;24211;49.980;19.776;2023-03-23T14:30:27;19.80;94.20
38428;DHT22;24211;49.980;19.776;2023-03-23T14:33:06;19.80;94.30
38428;DHT22;24211;49.980;19.776;2023-03-23T14:35:35;19.90;94.40
38428;DHT22;24211;49.980;19.776;2023-03-23T14:38:05;19.90;94.60
38428;DHT22;24211;49.980;19.776;2023-03-23T14:40:40;19.90;94.70
38428;DHT22;24211;49.980;19.776;2023-03-23T14:43:08;20.00;94.70
38428;DHT22;24211;49.980;19.776;2023-03-23T14:45:39;20.00;94.80
38428;DHT22;24211;49.980;19.776;2023-03-23T14:48:07;20.00;95.00
38428;DHT22;24211;49.980;19.776;2023-03-23T14:50:41;20.10;95.30
38428;DHT22;24211;49.980;19.776;2023-03-23T14:53:24;20.10;95.50
38428;DHT22;24211;49.980;19.776;2023-03-23T14:55:55;20.20;95.60
38428;DHT22;24211;49.980;19.776;2023-03-23T14:58:24;20.20;95.80
38428;DHT22;24211;49.980;19.776;2023-03-23T15:01:00;20.20;95.90
38428;DHT22;24211;49.980;19.776;2023-03-23T15:03:34;20.20;95.90
38428;DHT22;24211;49.980;19.776;2023-03-23T15:06:10;20.20;96.10
38428;DHT22;24211;49.980;19.776;2023-03-23T15:08:41;20.20;96.30
38428;DHT22;24211;49.980;19.776;2023-03-23T15:13:52;20.20;96.70
38428;DHT22;24211;49.980;19.776;2023-03-23T15:16:26;20.20;97.00
38428;DHT22;24211;49.980;19.776;2023-03-23T15:19:06;20.20;97.30
38428;DHT22;24211;49.980;19.776;2023-03-23T15:24:40;20.20;97.60
38428;DHT22;24211;49.980;19.776;2023-03-23T15:27:16;20.20;97.70
38428;DHT22;24211;49.980;19.776;2023-03-23T15:29:56;20.20;97.90
38428;DHT22;24211;49.980;19.776;2023-03-23T15:32:39;20.20;98.00
38428;DHT22;24211;49.980;19.776;2023-03-23T15:35:14;20.20;98.30
38428;DHT22;24211;49.980;19.776;2023-03-23T15:38:00;20.20;98.40
38428;DHT22;24211;49.980;19.776;2023-03-23T15:40:34;20.20;98.60
38428;DHT22;24211;49.980;19.776;2023-03-23T15:43:24;20.20;98.80
38428;DHT22;24211;49.980;19.776;2023-03-23T15:46:00;20.10;99.00
38428;DHT22;24211;49.980;19.776;2023-03-23T15:48:48;20.10;99.20
38428;DHT22;24211;49.980;19.776;2023-03-23T15:51:18;20.10;99.30
38428;DHT22;24211;49.980;19.776;2023-03-23T15:53:46;20.10;99.50
38428;DHT22;24211;49.980;19.776;2023-03-23T15:56:13;20.00;99.80
38428;DHT22;24211;49.980;19.776;2023-03-23T15:58:39;20.00;99.70
38428;DHT22;24211;49.980;19.776;2023-03-23T16:01:25;20.00;99.50
38428;DHT22;24211;49.980;19.776;2023-03-23T16:04:01;19.90;99.20
38428;DHT22;24211;49.980;19.776;2023-03-23T16:06:35;19.90;98.90
38428;DHT22;24211;49.980;19.776;2023-03-23T16:09:05;19.80;98.90
38428;DHT22;24211;49.980;19.776;2023-03-23T16:11:33;19.80;98.70
38428;DHT22;24211;49.980;19.776;2023-03-23T16:14:01;19.70;98.60
38428;DHT22;24211;49.980;19.776;2023-03-23T16:16:40;19.70;98.30
38428;DHT22;24211;49.980;19.776;2023-03-23T16:19:14;19.70;98.20
38428;DHT22;24211;49.980;19.776;2023-03-23T16:21:43;19.60;98.00
38428;DHT22;24211;49.980;19.776;2023-03-23T16:24:10;19.50;97.90
38428;DHT22;24211;49.980;19.776;2023-03-23T16:26:38;19.50;97.90
38428;DHT22;24211;49.980;19.776;2023-03-23T16:29:14;19.40;97.80
38428;DHT22;24211;49.980;19.776;2023-03-23T16:32:03;19.30;97.70
38428;DHT22;24211;49.980;19.776;2023-03-23T16:34:31;19.30;97.90
38428;DHT22;24211;49.980;19.776;2023-03-23T16:37:01;19.30;97.80
38428;DHT22;24211;49.980;19.776;2023-03-23T16:39:29;19.30;97.80
38428;DHT22;24211;49.980;19.776;2023-03-23T16:41:57;19.20;97.80
38428;DHT22;24211;49.980;19.776;2023-03-23T16:44:24;19.20;97.70
38428;DHT22;24211;49.980;19.776;2023-03-23T16:46:52;19.20;97.80
38428;DHT22;24211;49.980;19.776;2023-03-23T16:49:19;19.10;98.00
38428;DHT22;24211;49.980;19.776;2023-03-23T16:51:47;19.10;98.40
38428;DHT22;24211;49.980;19.776;2023-03-23T16:54:14;19.10;98.30
38428;DHT22;24211;49.980;19.776;2023-03-23T16:56:42;19.00;98.30
38428;DHT22;24211;49.980;19.776;2023-03-23T16:59:13;19.00;98.10
38428;DHT22;24211;49.980;19.776;2023-03-23T17:01:41;19.00;98.30
38428;DHT22;24211;49.980;19.776;2023-03-23T17:04:09;19.00;98.40
38428;DHT22;24211;49.980;19.776;2023-03-23T17:06:38;18.90;98.70
38428;DHT22;24211;49.980;19.776;2023-03-23T17:09:05;18.80;98.90
38428;DHT22;24211;49.980;19.776;2023-03-23T17:11:34;18.80;99.00
38428;DHT22;24211;49.980;19.776;2023-03-23T17:14:01;18.70;99.00
38428;DHT22;24211;49.980;19.776;2023-03-23T17:16:29;18.70;99.30
38428;DHT22;24211;49.980;19.776;2023-03-23T17:18:57;18.70;99.20
38428;DHT22;24211;49.980;19.776;2023-03-23T17:21:25;18.70;99.40
38428;DHT22;24211;49.980;19.776;2023-03-23T17:23:53;18.60;99.70
38428;DHT22;24211;49.980;19.776;2023-03-23T17:26:27;18.60;99.70
38428;DHT22;24211;49.980;19.776;2023-03-23T17:28:54;18.50;99.60
38428;DHT22;24211;49.980;19.776;2023-03-23T17:31:22;18.40;99.70
38428;DHT22;24211;49.980;19.776;2023-03-23T17:33:50;18.40;99.70
38428;DHT22;24211;49.980;19.776;2023-03-23T17:36:19;18.40;99.70
38428;DHT22;24211;49.980;19.776;2023-03-23T17:38:46;18.40;99.70